Air Navigation Services of Czech Republic
Airport: LKNA Updated:  20.01.2017 20:06:05  UTC
 METAR LKNA 20.01. 20:00 ...
METAR LKNA 202000Z VRB01KT CAVOK M06/M12 Q1033 NOSIG=
 TAF LKNA 20.01. 17:00 ...
TAF LKNA 201700Z 2018/2118 VRB02KT CAVOK      BECMG 2021/2023 2000 BR NSC      BECMG 2107/2109 CAVOK=